No particular awareness of the weather is required.    There are no Weather-warnings


Meteo18 Weather Cam more information Meteo18 Weather Cam


Thunder radar more information blitzortung!


Rain radar more information rain snow radar


Visit our other weather sites:

Template documentation
and downloads

And another site



Weather Underground History page Text

Daily Summary for March 31, 2016 Units:  Metric    English   Both
« Previous Day
Next Day »
Daily Weekly Monthly Yearly Custom
  High: Low: Average:
Temperature: 10.9 °C 5.1 °C 8 °C
Dew Point: 10.4 °C 3.9 °C 7.4 °C
Humidity: 98 % 92 % 96 %
Wind Speed: 22.5 km/h 0.0 km/h 5.9 km/h
Wind Gust: 29.0 km/h - -
Wind:- - ENE
Pressure: 1013.4 hPa 1005.0 hPa -
Precipitation: 7.9 mm    
Historical Graphs
 
 
Tabular Data for March 31, 2016
Time Temperature Dew Point Pressure Wind Wind Speed Wind Gust Humidity Rainfall Rate (Hourly)
00:02 10.7 °C 10.2 °C 1008.7 hPa Calm     97 % 0.0 mm
00:07 10.8 °C 10.3 °C 1008.7 hPa Calm     97 % 0.0 mm
00:12 10.9 °C 10.4 °C 1008.4 hPa Calm     97 % 0.0 mm
00:22 10.8 °C 10.2 °C 1008.4 hPa Calm     96 % 0.0 mm
00:32 10.7 °C 10.1 °C 1007.3 hPa Calm     96 % 0.0 mm
00:42 10.4 °C 9.8 °C 1007.7 hPa Calm     96 % 0.0 mm
00:47 10.2 °C 9.6 °C 1007.7 hPa Calm     96 % 0.0 mm
00:52 10.0 °C 9.4 °C 1007.7 hPa Calm     96 % 0.0 mm
00:57 9.8 °C 9.2 °C 1008.0 hPa Calm     96 % 0.0 mm
01:02 9.7 °C 9.1 °C 1008.0 hPa Calm     96 % 0.0 mm
01:12 9.5 °C 8.9 °C 1008.0 hPa Calm     96 % 0.0 mm
01:17 9.4 °C 8.8 °C 1008.0 hPa Calm     96 % 0.0 mm
01:22 9.4 °C 8.9 °C 1008.0 hPa Calm     97 % 0.0 mm
01:27 9.6 °C 9.1 °C 1008.4 hPa Calm     97 % 0.0 mm
01:32 9.7 °C 9.2 °C 1009.0 hPa Calm     97 % 0.0 mm
01:37 10.0 °C 9.7 °C 1008.7 hPa Calm   4.8 km/h 98 % 0.5 mm
01:42 10.3 °C 10.0 °C 1007.3 hPa Calm   4.8 km/h 98 % 0.5 mm
01:47 10.4 °C 10.1 °C 1007.3 hPa SW 3.2 km/h 4.8 km/h 98 % 1.0 mm
01:52 10.5 °C 10.2 °C 1007.3 hPa Calm   4.8 km/h 98 % 1.0 mm
01:57 10.6 °C 10.1 °C 1007.3 hPa ENE 1.6 km/h 4.8 km/h 97 % 1.0 mm
02:02 10.4 °C 9.9 °C 1007.3 hPa NE 1.6 km/h 4.8 km/h 97 % 1.0 mm
02:07 10.3 °C 9.8 °C 1007.3 hPa Calm   6.4 km/h 97 % 1.0 mm
02:12 10.1 °C 9.5 °C 1007.3 hPa Calm   6.4 km/h 96 % 1.0 mm
02:17 9.9 °C 9.4 °C 1007.3 hPa Calm   6.4 km/h 97 % 1.0 mm
02:27 9.7 °C 9.2 °C 1007.3 hPa Calm   1.6 km/h 97 % 1.0 mm
02:32 9.7 °C 9.2 °C 1007.0 hPa Calm   1.6 km/h 97 % 1.0 mm
02:37 9.5 °C 9.0 °C 1007.3 hPa Calm   1.6 km/h 97 % 0.5 mm
02:42 9.6 °C 9.1 °C 1007.3 hPa Calm   1.6 km/h 97 % 0.5 mm
02:47 9.4 °C 8.9 °C 1007.3 hPa Calm   1.6 km/h 97 % 0.0 mm
02:52 9.4 °C 8.9 °C 1007.3 hPa Calm   1.6 km/h 97 % 0.0 mm
02:57 9.4 °C 8.9 °C 1007.3 hPa Calm   1.6 km/h 97 % 0.0 mm
03:02 9.3 °C 8.8 °C 1007.3 hPa Calm   1.6 km/h 97 % 0.0 mm
03:07 9.3 °C 8.8 °C 1007.3 hPa Calm   1.6 km/h 97 % 0.0 mm
03:12 9.2 °C 8.7 °C 1007.0 hPa Calm   1.6 km/h 97 % 0.0 mm
03:17 9.1 °C 8.6 °C 1007.0 hPa Calm     97 % 0.0 mm
03:22 9.1 °C 8.6 °C 1007.0 hPa Calm     97 % 0.0 mm
03:27 9.1 °C 8.6 °C 1006.7 hPa Calm     97 % 0.0 mm
03:32 9.2 °C 8.7 °C 1007.0 hPa Calm   3.2 km/h 97 % 0.0 mm
03:37 9.2 °C 8.7 °C 1007.0 hPa Calm   3.2 km/h 97 % 0.0 mm
03:42 9.2 °C 8.7 °C 1007.0 hPa Calm   3.2 km/h 97 % 0.0 mm
03:47 9.2 °C 8.7 °C 1006.7 hPa Calm   1.6 km/h 97 % 0.0 mm
03:52 9.2 °C 8.7 °C 1006.7 hPa Calm   1.6 km/h 97 % 0.0 mm
03:57 9.2 °C 8.7 °C 1006.7 hPa Calm   1.6 km/h 97 % 0.0 mm
04:02 9.2 °C 8.7 °C 1006.7 hPa ENE 3.2 km/h 3.2 km/h 97 % 0.0 mm
04:12 9.2 °C 8.7 °C 1006.7 hPa Calm   3.2 km/h 97 % 0.0 mm
04:17 9.2 °C 8.7 °C 1006.7 hPa Calm   3.2 km/h 97 % 0.0 mm
04:22 9.1 °C 8.6 °C 1006.7 hPa Calm   3.2 km/h 97 % 0.0 mm
04:27 9.1 °C 8.6 °C 1006.3 hPa Calm     97 % 0.0 mm
04:32 9.1 °C 8.6 °C 1006.3 hPa Calm     97 % 0.0 mm
04:37 9.1 °C 8.6 °C 1006.3 hPa Calm     97 % 0.0 mm
04:42 9.1 °C 8.8 °C 1006.0 hPa Calm   1.6 km/h 98 % 0.0 mm
04:47 9.1 °C 8.8 °C 1005.6 hPa Calm   3.2 km/h 98 % 0.0 mm
04:52 9.1 °C 8.8 °C 1006.0 hPa NE 3.2 km/h 3.2 km/h 98 % 0.0 mm
05:02 9.2 °C 8.9 °C 1006.3 hPa ENE 1.6 km/h 4.8 km/h 98 % 0.0 mm
05:12 9.1 °C 8.8 °C 1006.3 hPa NNE 4.8 km/h 6.4 km/h 98 % 0.0 mm
05:17 9.1 °C 8.8 °C 1006.3 hPa Calm   6.4 km/h 98 % 0.0 mm
05:22 9.1 °C 8.8 °C 1006.3 hPa Calm   8.0 km/h 98 % 0.0 mm
05:32 9.1 °C 8.8 °C 1006.7 hPa Calm   3.2 km/h 98 % 0.0 mm
05:37 9.1 °C 8.8 °C 1006.3 hPa Calm   3.2 km/h 98 % 0.0 mm
05:42 9.1 °C 8.8 °C 1006.3 hPa Calm   3.2 km/h 98 % 0.0 mm
05:52 9.0 °C 8.7 °C 1006.3 hPa Calm   1.6 km/h 98 % 0.0 mm
05:57 8.9 °C 8.6 °C 1006.3 hPa Calm   1.6 km/h 98 % 0.0 mm
06:02 8.8 °C 8.3 °C 1006.0 hPa Calm   1.6 km/h 97 % 0.0 mm
06:07 8.8 °C 8.5 °C 1006.0 hPa Calm   1.6 km/h 98 % 0.0 mm
06:12 8.9 °C 8.6 °C 1006.0 hPa ENE 3.2 km/h 4.8 km/h 98 % 0.0 mm
06:17 8.9 °C 8.6 °C 1006.0 hPa Calm   4.8 km/h 98 % 0.0 mm
06:22 8.8 °C 8.5 °C 1005.6 hPa South 3.2 km/h 6.4 km/h 98 % 0.0 mm
06:27 8.8 °C 8.5 °C 1005.6 hPa ESE 1.6 km/h 6.4 km/h 98 % 0.0 mm
06:32 8.7 °C 8.4 °C 1005.6 hPa NNE 6.4 km/h 6.4 km/h 98 % 0.0 mm
06:37 8.7 °C 8.4 °C 1005.3 hPa NE 4.8 km/h 11.3 km/h 98 % 0.3 mm
06:42 8.7 °C 8.4 °C 1005.3 hPa ENE 3.2 km/h 11.3 km/h 98 % 0.3 mm
06:47 8.7 °C 8.4 °C 1005.3 hPa SSE 4.8 km/h 11.3 km/h 98 % 0.3 mm
06:52 8.7 °C 8.4 °C 1005.3 hPa North 1.6 km/h 11.3 km/h 98 % 0.3 mm
07:02 8.6 °C 8.3 °C 1005.6 hPa Calm   11.3 km/h 98 % 0.3 mm
07:07 8.6 °C 8.3 °C 1005.3 hPa ENE 3.2 km/h 11.3 km/h 98 % 0.3 mm
07:12 8.7 °C 8.4 °C 1005.3 hPa NE 4.8 km/h 8.0 km/h 98 % 0.3 mm
07:17 8.7 °C 8.4 °C 1005.3 hPa SSE 1.6 km/h 8.0 km/h 98 % 0.3 mm
07:22 8.7 °C 8.4 °C 1005.3 hPa ENE 4.8 km/h 8.0 km/h 98 % 0.3 mm
07:27 8.7 °C 8.4 °C 1005.6 hPa ENE 3.2 km/h 8.0 km/h 98 % 0.3 mm
07:32 8.7 °C 8.4 °C 1005.6 hPa East 4.8 km/h 8.0 km/h 98 % 0.0 mm
07:37 8.7 °C 8.4 °C 1006.0 hPa NE 4.8 km/h 8.0 km/h 98 % 0.0 mm
07:42 8.7 °C 8.4 °C 1006.0 hPa East 3.2 km/h 8.0 km/h 98 % 0.0 mm
07:47 8.7 °C 8.4 °C 1006.0 hPa NE 3.2 km/h 8.0 km/h 98 % 0.0 mm
07:52 8.7 °C 8.4 °C 1006.0 hPa ENE 1.6 km/h 6.4 km/h 98 % 0.0 mm
07:57 8.6 °C 8.3 °C 1006.0 hPa ENE 3.2 km/h 6.4 km/h 98 % 0.0 mm
08:02 8.5 °C 8.2 °C 1005.6 hPa Calm   6.4 km/h 98 % 0.0 mm
08:12 8.5 °C 8.2 °C 1006.0 hPa Calm   6.4 km/h 98 % 0.0 mm
08:17 8.6 °C 8.3 °C 1005.6 hPa NE 6.4 km/h 6.4 km/h 98 % 0.0 mm
08:22 8.6 °C 8.3 °C 1005.6 hPa ENE 1.6 km/h 6.4 km/h 98 % 0.0 mm
08:32 8.8 °C 8.5 °C 1005.6 hPa NNE 8.0 km/h 8.0 km/h 98 % 0.0 mm
08:37 8.8 °C 8.5 °C 1005.6 hPa NE 1.6 km/h 6.4 km/h 98 % 0.0 mm
08:42 8.9 °C 8.6 °C 1005.6 hPa Calm   8.0 km/h 98 % 0.0 mm
08:47 8.9 °C 8.6 °C 1005.6 hPa ENE 4.8 km/h 8.0 km/h 98 % 0.0 mm
08:52 8.9 °C 8.6 °C 1005.6 hPa ESE 6.4 km/h 8.0 km/h 98 % 0.0 mm
09:02 9.0 °C 8.7 °C 1005.6 hPa NE 9.7 km/h 11.3 km/h 98 % 0.0 mm
09:12 9.0 °C 8.7 °C 1005.6 hPa NE 3.2 km/h 16.1 km/h 98 % 0.0 mm
09:17 8.9 °C 8.6 °C 1006.0 hPa ENE 6.4 km/h 16.1 km/h 98 % 0.0 mm
09:22 8.9 °C 8.6 °C 1006.0 hPa North 4.8 km/h 16.1 km/h 98 % 0.0 mm
09:27 8.8 °C 8.5 °C 1005.6 hPa ENE 12.9 km/h 16.1 km/h 98 % 0.0 mm
09:32 8.7 °C 8.4 °C 1005.6 hPa NE 6.4 km/h 19.3 km/h 98 % 0.0 mm
09:42 8.8 °C 8.5 °C 1006.0 hPa ENE 6.4 km/h 17.7 km/h 98 % 0.0 mm
09:47 8.8 °C 8.5 °C 1006.0 hPa ENE 8.0 km/h 17.7 km/h 98 % 0.0 mm
09:57 8.8 °C 8.5 °C 1006.7 hPa NE 1.6 km/h 17.7 km/h 98 % 0.0 mm
10:02 8.8 °C 8.5 °C 1006.3 hPa ENE 3.2 km/h 16.1 km/h 98 % 0.0 mm
10:12 8.8 °C 8.5 °C 1007.0 hPa NE 1.6 km/h 14.5 km/h 98 % 0.0 mm
10:17 8.8 °C 8.5 °C 1007.3 hPa Calm   14.5 km/h 98 % 0.0 mm
10:22 8.8 °C 8.5 °C 1007.3 hPa Calm   14.5 km/h 98 % 0.0 mm
10:27 8.8 °C 8.5 °C 1007.3 hPa NE 3.2 km/h 14.5 km/h 98 % 0.0 mm
10:32 8.8 °C 8.5 °C 1007.0 hPa East 3.2 km/h 9.7 km/h 98 % 0.3 mm
10:37 8.9 °C 8.6 °C 1007.0 hPa NE 6.4 km/h 9.7 km/h 98 % 0.3 mm
10:42 9.0 °C 8.7 °C 1006.7 hPa East 6.4 km/h 11.3 km/h 98 % 0.3 mm
10:47 9.1 °C 8.8 °C 1006.7 hPa NNE 11.3 km/h 11.3 km/h 98 % 0.3 mm
10:52 9.2 °C 8.9 °C 1006.7 hPa NE 3.2 km/h 12.9 km/h 98 % 0.3 mm
10:57 9.2 °C 8.9 °C 1006.7 hPa NE 12.9 km/h 12.9 km/h 98 % 0.3 mm
11:02 9.2 °C 8.9 °C 1006.3 hPa ESE 8.0 km/h 14.5 km/h 98 % 0.3 mm
11:17 9.2 °C 8.7 °C 1006.0 hPa East 8.0 km/h 17.7 km/h 97 % 0.3 mm
11:22 9.2 °C 8.7 °C 1006.3 hPa SSE 11.3 km/h 17.7 km/h 97 % 0.3 mm
11:27 9.2 °C 8.7 °C 1006.3 hPa ENE 3.2 km/h 17.7 km/h 97 % 0.3 mm
11:32 9.2 °C 8.7 °C 1006.3 hPa NE 4.8 km/h 17.7 km/h 97 % 0.0 mm
11:37 9.2 °C 8.7 °C 1006.0 hPa ENE 4.8 km/h 16.1 km/h 97 % 0.0 mm
11:42 9.2 °C 8.7 °C 1006.0 hPa East 4.8 km/h 16.1 km/h 97 % 0.0 mm
11:47 9.2 °C 8.7 °C 1006.0 hPa East 8.0 km/h 19.3 km/h 97 % 0.0 mm
11:52 9.2 °C 8.7 °C 1006.0 hPa ENE 12.9 km/h 19.3 km/h 97 % 0.0 mm
11:57 9.1 °C 8.5 °C 1005.6 hPa ENE 9.7 km/h 19.3 km/h 96 % 0.0 mm
12:02 8.9 °C 8.3 °C 1005.6 hPa NE 4.8 km/h 19.3 km/h 96 % 0.0 mm
12:12 8.7 °C 8.1 °C 1005.3 hPa East 6.4 km/h 19.3 km/h 96 % 0.0 mm
12:17 8.6 °C 8.0 °C 1005.3 hPa NE 14.5 km/h 22.5 km/h 96 % 0.0 mm
12:22 8.5 °C 7.9 °C 1005.3 hPa NE 16.1 km/h 22.5 km/h 96 % 0.0 mm
12:27 8.4 °C 7.8 °C 1005.0 hPa East 9.7 km/h 22.5 km/h 96 % 0.0 mm
12:32 8.4 °C 7.8 °C 1005.3 hPa East 6.4 km/h 22.5 km/h 96 % 0.0 mm
12:37 8.4 °C 7.8 °C 1005.6 hPa NE 4.8 km/h 24.1 km/h 96 % 0.0 mm
12:42 8.4 °C 7.8 °C 1005.6 hPa ESE 8.0 km/h 24.1 km/h 96 % 0.0 mm
12:52 8.4 °C 7.8 °C 1005.6 hPa ENE 3.2 km/h 20.9 km/h 96 % 0.0 mm
12:57 8.4 °C 7.8 °C 1005.6 hPa East 11.3 km/h 17.7 km/h 96 % 0.0 mm
13:02 8.4 °C 7.8 °C 1005.6 hPa NNE 14.5 km/h 17.7 km/h 96 % 0.0 mm
13:12 8.5 °C 7.9 °C 1006.0 hPa NE 14.5 km/h 17.7 km/h 96 % 0.0 mm
13:17 8.5 °C 7.9 °C 1006.0 hPa NE 6.4 km/h 19.3 km/h 96 % 0.0 mm
13:22 8.6 °C 8.0 °C 1006.0 hPa NNE 6.4 km/h 19.3 km/h 96 % 0.0 mm
13:32 8.7 °C 8.1 °C 1006.0 hPa East 3.2 km/h 19.3 km/h 96 % 0.0 mm
13:37 8.8 °C 8.0 °C 1006.0 hPa ESE 1.6 km/h 17.7 km/h 95 % 0.0 mm
13:42 8.7 °C 7.9 °C 1006.0 hPa NE 12.9 km/h 17.7 km/h 95 % 0.0 mm
13:47 8.7 °C 7.9 °C 1006.0 hPa ENE 11.3 km/h 22.5 km/h 95 % 0.0 mm
13:52 8.7 °C 7.9 °C 1006.0 hPa East 4.8 km/h 24.1 km/h 95 % 0.0 mm
13:57 8.7 °C 7.8 °C 1006.3 hPa ESE 6.4 km/h 24.1 km/h 94 % 0.0 mm
14:02 8.6 °C 7.8 °C 1006.3 hPa NE 8.0 km/h 24.1 km/h 95 % 0.0 mm
14:07 8.5 °C 7.7 °C 1006.3 hPa East 3.2 km/h 19.3 km/h 95 % 0.0 mm
14:12 8.4 °C 7.6 °C 1006.3 hPa East 3.2 km/h 19.3 km/h 95 % 0.0 mm
14:17 8.4 °C 7.6 °C 1006.3 hPa ENE 6.4 km/h 16.1 km/h 95 % 0.0 mm
14:22 8.4 °C 7.6 °C 1006.3 hPa ESE 4.8 km/h 17.7 km/h 95 % 0.0 mm
14:32 8.2 °C 7.4 °C 1006.7 hPa NE 8.0 km/h 19.3 km/h 95 % 0.0 mm
14:37 8.3 °C 7.7 °C 1006.7 hPa East 4.8 km/h 19.3 km/h 96 % 0.0 mm
14:42 8.3 °C 7.7 °C 1006.7 hPa NNE 8.0 km/h 19.3 km/h 96 % 0.0 mm
14:52 8.3 °C 7.5 °C 1006.3 hPa SSE 3.2 km/h 17.7 km/h 95 % 0.0 mm
14:57 8.3 °C 7.5 °C 1006.7 hPa East 8.0 km/h 17.7 km/h 95 % 0.0 mm
15:02 8.3 °C 7.5 °C 1006.7 hPa East 9.7 km/h 17.7 km/h 95 % 0.0 mm
15:07 8.2 °C 7.4 °C 1006.7 hPa ESE 6.4 km/h 17.7 km/h 95 % 0.0 mm
15:12 8.1 °C 7.3 °C 1006.7 hPa NE 11.3 km/h 17.7 km/h 95 % 0.0 mm
15:17 7.9 °C 7.1 °C 1006.3 hPa East 8.0 km/h 20.9 km/h 95 % 0.0 mm
15:22 7.8 °C 7.0 °C 1006.7 hPa NE 9.7 km/h 20.9 km/h 95 % 0.0 mm
15:32 7.6 °C 6.9 °C 1006.7 hPa ENE 11.3 km/h 20.9 km/h 95 % 0.0 mm
15:37 7.5 °C 6.8 °C 1006.7 hPa NE 22.5 km/h 22.5 km/h 95 % 0.0 mm
15:42 7.4 °C 6.8 °C 1006.7 hPa ENE 6.4 km/h 20.9 km/h 96 % 0.0 mm
15:47 7.4 °C 6.8 °C 1006.7 hPa NNE 8.0 km/h 24.1 km/h 96 % 0.0 mm
15:52 7.3 °C 6.7 °C 1006.7 hPa NNE 12.9 km/h 24.1 km/h 96 % 0.0 mm
15:57 7.3 °C 6.7 °C 1006.7 hPa ENE 8.0 km/h 20.9 km/h 96 % 0.0 mm
16:02 7.3 °C 6.7 °C 1006.7 hPa NE 11.3 km/h 20.9 km/h 96 % 0.0 mm
16:07 7.3 °C 6.7 °C 1006.7 hPa North 9.7 km/h 24.1 km/h 96 % 0.0 mm
16:12 7.2 °C 6.6 °C 1006.7 hPa East 4.8 km/h 24.1 km/h 96 % 0.0 mm
16:17 7.2 °C 6.6 °C 1006.7 hPa East 11.3 km/h 24.1 km/h 96 % 0.0 mm
16:22 7.2 °C 6.6 °C 1006.7 hPa ENE 12.9 km/h 19.3 km/h 96 % 0.0 mm
16:27 7.2 °C 6.6 °C 1006.7 hPa NNE 9.7 km/h 20.9 km/h 96 % 0.0 mm
16:32 7.1 °C 6.5 °C 1006.7 hPa NE 14.5 km/h 20.9 km/h 96 % 0.0 mm
16:37 7.0 °C 6.4 °C 1006.7 hPa NE 9.7 km/h 22.5 km/h 96 % 0.0 mm
16:42 7.1 °C 6.5 °C 1006.7 hPa ENE 3.2 km/h 22.5 km/h 96 % 0.0 mm
16:47 7.0 °C 6.4 °C 1007.0 hPa NE 11.3 km/h 22.5 km/h 96 % 0.0 mm
16:57 6.9 °C 6.2 °C 1007.0 hPa NNE 4.8 km/h 22.5 km/h 95 % 0.0 mm
17:02 6.9 °C 6.2 °C 1007.0 hPa ENE 12.9 km/h 22.5 km/h 95 % 0.0 mm
17:07 6.9 °C 6.2 °C 1007.0 hPa ENE 4.8 km/h 20.9 km/h 95 % 0.0 mm
17:12 6.9 °C 6.2 °C 1007.3 hPa ENE 16.1 km/h 20.9 km/h 95 % 0.0 mm
17:17 6.8 °C 6.1 °C 1007.3 hPa ENE 16.1 km/h 20.9 km/h 95 % 0.3 mm
17:22 6.8 °C 6.1 °C 1007.0 hPa NE 22.5 km/h 22.5 km/h 95 % 0.5 mm
17:27 6.8 °C 6.1 °C 1007.0 hPa NE 6.4 km/h 22.5 km/h 95 % 0.5 mm
17:32 6.8 °C 6.1 °C 1007.0 hPa NNE 14.5 km/h 22.5 km/h 95 % 0.5 mm
17:37 6.7 °C 6.0 °C 1007.0 hPa NNE 12.9 km/h 22.5 km/h 95 % 0.5 mm
17:42 6.7 °C 6.0 °C 1007.0 hPa NE 8.0 km/h 22.5 km/h 95 % 0.5 mm
17:47 6.7 °C 6.0 °C 1007.3 hPa NE 4.8 km/h 19.3 km/h 95 % 0.5 mm
17:52 6.6 °C 5.9 °C 1007.3 hPa East 6.4 km/h 22.5 km/h 95 % 0.5 mm
17:57 6.6 °C 5.9 °C 1007.3 hPa ENE 6.4 km/h 22.5 km/h 95 % 0.8 mm
18:02 6.6 °C 5.7 °C 1007.0 hPa ENE 14.5 km/h 22.5 km/h 94 % 0.8 mm
18:07 6.5 °C 5.6 °C 1006.7 hPa ENE 12.9 km/h 19.3 km/h 94 % 1.0 mm
18:17 6.4 °C 5.5 °C 1006.0 hPa NE 14.5 km/h 22.5 km/h 94 % 1.0 mm
18:22 6.3 °C 5.4 °C 1006.3 hPa ENE 8.0 km/h 22.5 km/h 94 % 1.0 mm
18:27 6.3 °C 5.4 °C 1007.0 hPa SE 9.7 km/h 29.0 km/h 94 % 0.8 mm
18:32 6.3 °C 5.4 °C 1007.0 hPa NE 9.7 km/h 29.0 km/h 94 % 0.8 mm
18:42 6.3 °C 5.4 °C 1008.0 hPa NE 8.0 km/h 22.5 km/h 94 % 1.0 mm
18:47 6.3 °C 5.6 °C 1008.4 hPa NE 11.3 km/h 19.3 km/h 95 % 1.5 mm
18:57 6.2 °C 5.5 °C 1008.4 hPa NNE 6.4 km/h 19.3 km/h 95 % 1.8 mm
19:02 6.2 °C 5.5 °C 1008.4 hPa NE 6.4 km/h 19.3 km/h 95 % 1.8 mm
19:12 6.2 °C 5.5 °C 1008.4 hPa ENE 14.5 km/h 16.1 km/h 95 % 2.5 mm
19:17 6.2 °C 5.5 °C 1008.4 hPa East 6.4 km/h 16.1 km/h 95 % 3.3 mm
19:22 6.2 °C 5.5 °C 1008.4 hPa NE 6.4 km/h 16.1 km/h 95 % 3.8 mm
19:32 6.2 °C 5.5 °C 1008.4 hPa East 6.4 km/h 16.1 km/h 95 % 4.3 mm
19:37 6.2 °C 5.5 °C 1008.0 hPa NE 14.5 km/h 19.3 km/h 95 % 4.3 mm
19:47 6.2 °C 5.5 °C 1008.0 hPa ENE 11.3 km/h 19.3 km/h 95 % 4.3 mm
19:52 6.1 °C 5.4 °C 1008.4 hPa NE 12.9 km/h 19.3 km/h 95 % 4.3 mm
19:57 6.1 °C 5.4 °C 1008.4 hPa ESE 9.7 km/h 22.5 km/h 95 % 3.8 mm
20:02 6.1 °C 5.4 °C 1008.4 hPa ENE 9.7 km/h 22.5 km/h 95 % 3.3 mm
20:07 6.1 °C 5.2 °C 1009.0 hPa NE 8.0 km/h 22.5 km/h 94 % 2.5 mm
20:12 6.0 °C 5.1 °C 1009.0 hPa NNE 14.5 km/h 22.5 km/h 94 % 2.5 mm
20:17 5.9 °C 5.0 °C 1009.4 hPa NNE 8.0 km/h 24.1 km/h 94 % 1.8 mm
20:22 5.9 °C 5.0 °C 1009.7 hPa NE 8.0 km/h 24.1 km/h 94 % 1.5 mm
20:32 5.8 °C 4.9 °C 1010.0 hPa East 8.0 km/h 20.9 km/h 94 % 1.0 mm
20:42 5.6 °C 4.7 °C 1010.0 hPa NE 3.2 km/h 19.3 km/h 94 % 0.5 mm
20:47 5.6 °C 4.7 °C 1010.0 hPa NE 11.3 km/h 20.9 km/h 94 % 0.3 mm
20:52 5.6 °C 4.7 °C 1010.0 hPa NE 8.0 km/h 20.9 km/h 94 % 0.3 mm
20:57 5.5 °C 4.6 °C 1010.4 hPa ENE 14.5 km/h 22.5 km/h 94 % 0.0 mm
21:02 5.4 °C 4.5 °C 1010.0 hPa NE 9.7 km/h 22.5 km/h 94 % 0.0 mm
21:07 5.4 °C 4.5 °C 1010.0 hPa ESE 9.7 km/h 25.7 km/h 94 % 0.0 mm
21:12 5.3 °C 4.4 °C 1010.0 hPa NE 3.2 km/h 25.7 km/h 94 % 0.0 mm
21:17 5.3 °C 4.4 °C 1010.0 hPa ENE 17.7 km/h 25.7 km/h 94 % 0.0 mm
21:22 5.2 °C 4.3 °C 1010.0 hPa ESE 4.8 km/h 22.5 km/h 94 % 0.0 mm
21:27 5.1 °C 4.2 °C 1010.0 hPa East 19.3 km/h 27.4 km/h 94 % 0.0 mm
21:32 5.1 °C 4.2 °C 1010.0 hPa ENE 16.1 km/h 27.4 km/h 94 % 0.0 mm
21:37 5.1 °C 4.2 °C 1010.4 hPa East 9.7 km/h 27.4 km/h 94 % 0.0 mm
21:42 5.1 °C 4.2 °C 1010.7 hPa ENE 11.3 km/h 27.4 km/h 94 % 0.0 mm
21:47 5.1 °C 4.2 °C 1010.7 hPa East 6.4 km/h 22.5 km/h 94 % 0.0 mm
21:52 5.1 °C 4.2 °C 1011.1 hPa ENE 11.3 km/h 22.5 km/h 94 % 0.0 mm
21:57 5.1 °C 4.2 °C 1011.1 hPa NE 9.7 km/h 20.9 km/h 94 % 0.0 mm
22:02 5.1 °C 4.2 °C 1011.1 hPa NE 9.7 km/h 24.1 km/h 94 % 0.0 mm
22:07 5.1 °C 4.2 °C 1011.4 hPa NE 4.8 km/h 24.1 km/h 94 % 0.0 mm
22:12 5.1 °C 4.2 °C 1011.4 hPa East 8.0 km/h 24.1 km/h 94 % 0.0 mm
22:17 5.1 °C 4.2 °C 1011.7 hPa ESE 11.3 km/h 16.1 km/h 94 % 0.0 mm
22:22 5.1 °C 4.2 °C 1011.7 hPa NE 11.3 km/h 16.1 km/h 94 % 0.0 mm
22:27 5.1 °C 4.1 °C 1011.7 hPa NE 12.9 km/h 16.1 km/h 93 % 0.0 mm
22:32 5.1 °C 4.1 °C 1012.1 hPa NE 16.1 km/h 16.1 km/h 93 % 0.0 mm
22:37 5.1 °C 4.1 °C 1012.1 hPa NE 4.8 km/h 17.7 km/h 93 % 0.0 mm
22:42 5.1 °C 4.1 °C 1011.7 hPa East 17.7 km/h 17.7 km/h 93 % 0.0 mm
22:47 5.1 °C 3.9 °C 1011.7 hPa NNE 11.3 km/h 27.4 km/h 92 % 0.3 mm
22:52 5.1 °C 4.1 °C 1011.7 hPa NE 16.1 km/h 27.4 km/h 93 % 0.3 mm
22:57 5.1 °C 3.9 °C 1011.7 hPa NE 9.7 km/h 27.4 km/h 92 % 0.3 mm
23:12 5.1 °C 4.1 °C 1012.8 hPa NNE 8.0 km/h 20.9 km/h 93 % 0.3 mm
23:17 5.1 °C 4.1 °C 1012.8 hPa North 11.3 km/h 20.9 km/h 93 % 0.3 mm
23:22 5.2 °C 4.2 °C 1013.1 hPa ENE 3.2 km/h 20.9 km/h 93 % 0.3 mm
23:32 5.2 °C 4.2 °C 1013.1 hPa East 1.6 km/h 17.7 km/h 93 % 0.3 mm
23:37 5.2 °C 4.2 °C 1013.4 hPa ESE 4.8 km/h 14.5 km/h 93 % 0.0 mm
23:42 5.2 °C 4.2 °C 1013.4 hPa ENE 4.8 km/h 14.5 km/h 93 % 0.0 mm
23:47 5.3 °C 4.1 °C 1013.4 hPa NE 6.4 km/h 16.1 km/h 92 % 0.0 mm
23:52 5.3 °C 4.1 °C 1013.4 hPa NE 8.0 km/h 16.1 km/h 92 % 0.0 mm
23:57 5.3 °C 4.3 °C 1013.4 hPa ENE 9.7 km/h 17.7 km/h 93 % 0.0 mm
Meteo18
Compliments of Weather Underground - 4 mb

Script developed by  Jim McMurry - jmcmurry@mwt.net Adapted for the template by  Wim van der Kuil - Leuven-Template.eu

You find our weather info also at:

European Weather Network

Weather Underground

Equipment we use:

Weather-station
Davis Vue

Weather-program
Meteohub

Weather-server
Raspberry PI 2 B+

Provider
1 and 1

Davis Vue

Meteohub

Raspberry PI 2 B+

1 and 1